sensor_id;sensor_type;location;lat;lon;timestamp;P1;durP1;ratioP1;P2;durP2;ratioP2
22030;SDS011;11179;52.106;21.024;2023-01-29T00:02:02;17.03;;;10.30;;
22030;SDS011;11179;52.106;21.024;2023-01-29T00:04:31;17.65;;;9.80;;
22030;SDS011;11179;52.106;21.024;2023-01-29T00:06:58;16.30;;;9.25;;
22030;SDS011;11179;52.106;21.024;2023-01-29T00:09:41;18.00;;;9.40;;
22030;SDS011;11179;52.106;21.024;2023-01-29T00:12:26;20.63;;;9.07;;
22030;SDS011;11179;52.106;21.024;2023-01-29T00:14:51;19.97;;;10.77;;
22030;SDS011;11179;52.106;21.024;2023-01-29T00:17:16;18.40;;;10.00;;
22030;SDS011;11179;52.106;21.024;2023-01-29T00:19:42;22.80;;;9.50;;
22030;SDS011;11179;52.106;21.024;2023-01-29T00:22:07;20.37;;;10.40;;
22030;SDS011;11179;52.106;21.024;2023-01-29T00:24:33;17.90;;;9.53;;
22030;SDS011;11179;52.106;21.024;2023-01-29T00:26:58;19.03;;;8.87;;
22030;SDS011;11179;52.106;21.024;2023-01-29T00:29:23;15.63;;;8.90;;
22030;SDS011;11179;52.106;21.024;2023-01-29T00:31:56;14.37;;;8.17;;
22030;SDS011;11179;52.106;21.024;2023-01-29T00:34:22;17.25;;;8.88;;
22030;SDS011;11179;52.106;21.024;2023-01-29T00:36:47;13.97;;;7.50;;
22030;SDS011;11179;52.106;21.024;2023-01-29T00:39:12;13.50;;;7.60;;
22030;SDS011;11179;52.106;21.024;2023-01-29T00:41:38;14.47;;;7.90;;
22030;SDS011;11179;52.106;21.024;2023-01-29T00:44:22;13.80;;;7.53;;
22030;SDS011;11179;52.106;21.024;2023-01-29T00:47:06;11.77;;;6.60;;
22030;SDS011;11179;52.106;21.024;2023-01-29T00:49:53;12.07;;;6.60;;
22030;SDS011;11179;52.106;21.024;2023-01-29T00:52:19;10.20;;;6.10;;
22030;SDS011;11179;52.106;21.024;2023-01-29T00:54:51;14.75;;;6.70;;
22030;SDS011;11179;52.106;21.024;2023-01-29T00:57:18;11.38;;;5.63;;
22030;SDS011;11179;52.106;21.024;2023-01-29T00:59:43;13.00;;;5.83;;
22030;SDS011;11179;52.106;21.024;2023-01-29T01:02:08;11.97;;;5.40;;
22030;SDS011;11179;52.106;21.024;2023-01-29T01:04:52;11.60;;;5.20;;
22030;SDS011;11179;52.106;21.024;2023-01-29T01:07:18;12.23;;;5.40;;
22030;SDS011;11179;52.106;21.024;2023-01-29T01:09:43;13.50;;;6.23;;
22030;SDS011;11179;52.106;21.024;2023-01-29T01:12:27;10.80;;;6.00;;
22030;SDS011;11179;52.106;21.024;2023-01-29T01:14:53;10.07;;;5.60;;
22030;SDS011;11179;52.106;21.024;2023-01-29T01:17:18;9.63;;;5.07;;
22030;SDS011;11179;52.106;21.024;2023-01-29T01:19:44;11.83;;;5.10;;
22030;SDS011;11179;52.106;21.024;2023-01-29T01:22:09;10.20;;;4.93;;
22030;SDS011;11179;52.106;21.024;2023-01-29T01:24:35;11.10;;;5.77;;
22030;SDS011;11179;52.106;21.024;2023-01-29T01:27:01;10.13;;;5.53;;
22030;SDS011;11179;52.106;21.024;2023-01-29T01:29:29;10.80;;;5.60;;
22030;SDS011;11179;52.106;21.024;2023-01-29T01:31:54;9.20;;;4.80;;
22030;SDS011;11179;52.106;21.024;2023-01-29T01:34:20;10.20;;;5.50;;
22030;SDS011;11179;52.106;21.024;2023-01-29T01:36:46;10.23;;;5.30;;
22030;SDS011;11179;52.106;21.024;2023-01-29T01:39:12;11.88;;;5.97;;
22030;SDS011;11179;52.106;21.024;2023-01-29T01:41:38;11.47;;;6.60;;
22030;SDS011;11179;52.106;21.024;2023-01-29T01:44:04;11.00;;;5.03;;
22030;SDS011;11179;52.106;21.024;2023-01-29T01:46:31;10.18;;;5.85;;
22030;SDS011;11179;52.106;21.024;2023-01-29T01:49:04;9.30;;;6.07;;
22030;SDS011;11179;52.106;21.024;2023-01-29T01:51:37;9.63;;;5.35;;
22030;SDS011;11179;52.106;21.024;2023-01-29T01:54:11;10.52;;;5.90;;
22030;SDS011;11179;52.106;21.024;2023-01-29T01:56:42;10.48;;;5.70;;
22030;SDS011;11179;52.106;21.024;2023-01-29T01:59:11;13.02;;;6.30;;
22030;SDS011;11179;52.106;21.024;2023-01-29T02:01:40;12.90;;;6.70;;
22030;SDS011;11179;52.106;21.024;2023-01-29T02:04:09;11.07;;;6.43;;
22030;SDS011;11179;52.106;21.024;2023-01-29T02:06:57;12.85;;;7.00;;
22030;SDS011;11179;52.106;21.024;2023-01-29T02:09:49;11.40;;;6.53;;
22030;SDS011;11179;52.106;21.024;2023-01-29T02:12:19;14.90;;;7.28;;
22030;SDS011;11179;52.106;21.024;2023-01-29T02:14:45;12.75;;;6.28;;
22030;SDS011;11179;52.106;21.024;2023-01-29T02:17:12;11.17;;;6.97;;
22030;SDS011;11179;52.106;21.024;2023-01-29T02:25:25;12.73;;;6.45;;
22030;SDS011;11179;52.106;21.024;2023-01-29T02:30:50;11.95;;;6.75;;
22030;SDS011;11179;52.106;21.024;2023-01-29T02:33:25;13.35;;;7.32;;
22030;SDS011;11179;52.106;21.024;2023-01-29T02:36:21;13.73;;;6.85;;
22030;SDS011;11179;52.106;21.024;2023-01-29T02:38:51;17.50;;;7.57;;
22030;SDS011;11179;52.106;21.024;2023-01-29T02:41:35;13.25;;;7.18;;
22030;SDS011;11179;52.106;21.024;2023-01-29T02:44:14;16.67;;;7.80;;
22030;SDS011;11179;52.106;21.024;2023-01-29T02:46:45;13.65;;;7.55;;
22030;SDS011;11179;52.106;21.024;2023-01-29T02:52:25;16.05;;;8.18;;
22030;SDS011;11179;52.106;21.024;2023-01-29T02:55:09;12.43;;;7.60;;
22030;SDS011;11179;52.106;21.024;2023-01-29T02:57:40;12.75;;;6.90;;
22030;SDS011;11179;52.106;21.024;2023-01-29T03:00:12;12.73;;;6.78;;
22030;SDS011;11179;52.106;21.024;2023-01-29T03:02:42;13.10;;;7.00;;
22030;SDS011;11179;52.106;21.024;2023-01-29T03:05:11;13.52;;;7.40;;
22030;SDS011;11179;52.106;21.024;2023-01-29T03:07:44;15.27;;;8.10;;
22030;SDS011;11179;52.106;21.024;2023-01-29T03:10:20;14.27;;;8.15;;
22030;SDS011;11179;52.106;21.024;2023-01-29T03:12:50;18.02;;;7.90;;
22030;SDS011;11179;52.106;21.024;2023-01-29T03:15:25;18.30;;;6.88;;
22030;SDS011;11179;52.106;21.024;2023-01-29T03:18:13;12.27;;;6.57;;
22030;SDS011;11179;52.106;21.024;2023-01-29T03:20:46;15.95;;;7.35;;
22030;SDS011;11179;52.106;21.024;2023-01-29T03:26:26;11.68;;;6.53;;
22030;SDS011;11179;52.106;21.024;2023-01-29T03:29:13;10.77;;;6.55;;
22030;SDS011;11179;52.106;21.024;2023-01-29T03:31:57;15.13;;;6.75;;
22030;SDS011;11179;52.106;21.024;2023-01-29T03:34:39;13.90;;;7.05;;
22030;SDS011;11179;52.106;21.024;2023-01-29T03:37:09;16.27;;;7.85;;
22030;SDS011;11179;52.106;21.024;2023-01-29T03:39:39;15.40;;;7.45;;
22030;SDS011;11179;52.106;21.024;2023-01-29T03:44:46;14.65;;;7.07;;
22030;SDS011;11179;52.106;21.024;2023-01-29T03:50:06;12.30;;;7.32;;
22030;SDS011;11179;52.106;21.024;2023-01-29T03:52:43;13.30;;;6.63;;
22030;SDS011;11179;52.106;21.024;2023-01-29T03:55:15;12.55;;;6.75;;
22030;SDS011;11179;52.106;21.024;2023-01-29T04:00:29;12.65;;;6.97;;
22030;SDS011;11179;52.106;21.024;2023-01-29T04:03:07;18.58;;;8.38;;
22030;SDS011;11179;52.106;21.024;2023-01-29T04:05:46;11.25;;;6.40;;
22030;SDS011;11179;52.106;21.024;2023-01-29T04:08:22;12.32;;;7.25;;
22030;SDS011;11179;52.106;21.024;2023-01-29T04:10:51;17.08;;;8.88;;
22030;SDS011;11179;52.106;21.024;2023-01-29T04:13:20;12.20;;;7.28;;
22030;SDS011;11179;52.106;21.024;2023-01-29T04:15:49;12.65;;;6.97;;
22030;SDS011;11179;52.106;21.024;2023-01-29T04:18:19;11.20;;;6.72;;
22030;SDS011;11179;52.106;21.024;2023-01-29T04:20:45;14.33;;;7.83;;
22030;SDS011;11179;52.106;21.024;2023-01-29T04:23:44;14.00;;;7.80;;
22030;SDS011;11179;52.106;21.024;2023-01-29T04:26:07;14.48;;;7.15;;
22030;SDS011;11179;52.106;21.024;2023-01-29T04:39:59;14.40;;;7.65;;
22030;SDS011;11179;52.106;21.024;2023-01-29T04:51:30;15.52;;;7.45;;
22030;SDS011;11179;52.106;21.024;2023-01-29T04:54:06;14.55;;;8.27;;
22030;SDS011;11179;52.106;21.024;2023-01-29T04:57:42;14.52;;;7.03;;
22030;SDS011;11179;52.106;21.024;2023-01-29T04:59:42;19.40;;;8.77;;
22030;SDS011;11179;52.106;21.024;2023-01-29T05:02:13;14.23;;;7.47;;
22030;SDS011;11179;52.106;21.024;2023-01-29T05:04:38;14.17;;;7.87;;
22030;SDS011;11179;52.106;21.024;2023-01-29T05:07:07;12.85;;;7.07;;
22030;SDS011;11179;52.106;21.024;2023-01-29T05:09:37;13.10;;;7.43;;
22030;SDS011;11179;52.106;21.024;2023-01-29T05:12:04;14.90;;;6.80;;
22030;SDS011;11179;52.106;21.024;2023-01-29T05:14:33;14.15;;;7.10;;
22030;SDS011;11179;52.106;21.024;2023-01-29T05:17:00;18.33;;;6.85;;
22030;SDS011;11179;52.106;21.024;2023-01-29T05:19:29;14.38;;;7.13;;
22030;SDS011;11179;52.106;21.024;2023-01-29T05:21:54;13.53;;;7.70;;
22030;SDS011;11179;52.106;21.024;2023-01-29T05:24:22;13.23;;;7.28;;
22030;SDS011;11179;52.106;21.024;2023-01-29T05:26:50;20.17;;;7.78;;
22030;SDS011;11179;52.106;21.024;2023-01-29T05:29:35;15.05;;;8.25;;
22030;SDS011;11179;52.106;21.024;2023-01-29T05:32:01;13.13;;;7.20;;
22030;SDS011;11179;52.106;21.024;2023-01-29T05:34:27;16.33;;;8.60;;
22030;SDS011;11179;52.106;21.024;2023-01-29T05:36:52;13.00;;;7.00;;
22030;SDS011;11179;52.106;21.024;2023-01-29T05:39:18;14.87;;;8.23;;
22030;SDS011;11179;52.106;21.024;2023-01-29T05:41:43;16.57;;;8.37;;
22030;SDS011;11179;52.106;21.024;2023-01-29T05:44:09;15.77;;;8.23;;
22030;SDS011;11179;52.106;21.024;2023-01-29T05:46:35;14.23;;;8.33;;
22030;SDS011;11179;52.106;21.024;2023-01-29T05:49:01;13.95;;;7.55;;
22030;SDS011;11179;52.106;21.024;2023-01-29T05:51:27;17.60;;;7.10;;
22030;SDS011;11179;52.106;21.024;2023-01-29T05:53:53;15.90;;;7.83;;
22030;SDS011;11179;52.106;21.024;2023-01-29T05:56:18;23.47;;;9.00;;
22030;SDS011;11179;52.106;21.024;2023-01-29T05:58:43;17.30;;;8.30;;
22030;SDS011;11179;52.106;21.024;2023-01-29T06:01:10;14.40;;;7.73;;
22030;SDS011;11179;52.106;21.024;2023-01-29T06:03:37;15.43;;;7.57;;
22030;SDS011;11179;52.106;21.024;2023-01-29T06:06:02;16.13;;;8.60;;
22030;SDS011;11179;52.106;21.024;2023-01-29T06:08:28;19.10;;;8.57;;
22030;SDS011;11179;52.106;21.024;2023-01-29T06:10:53;19.80;;;9.10;;
22030;SDS011;11179;52.106;21.024;2023-01-29T06:13:19;15.30;;;8.57;;
22030;SDS011;11179;52.106;21.024;2023-01-29T06:15:44;15.60;;;8.90;;
22030;SDS011;11179;52.106;21.024;2023-01-29T06:18:09;20.87;;;8.50;;
22030;SDS011;11179;52.106;21.024;2023-01-29T06:20:35;23.37;;;10.33;;
22030;SDS011;11179;52.106;21.024;2023-01-29T06:23:01;17.00;;;8.77;;
22030;SDS011;11179;52.106;21.024;2023-01-29T06:25:26;18.37;;;8.77;;
22030;SDS011;11179;52.106;21.024;2023-01-29T06:27:52;19.10;;;9.20;;
22030;SDS011;11179;52.106;21.024;2023-01-29T06:30:17;18.30;;;9.30;;
22030;SDS011;11179;52.106;21.024;2023-01-29T06:32:42;16.43;;;8.80;;
22030;SDS011;11179;52.106;21.024;2023-01-29T06:35:08;17.03;;;8.00;;
22030;SDS011;11179;52.106;21.024;2023-01-29T06:37:34;15.93;;;8.30;;
22030;SDS011;11179;52.106;21.024;2023-01-29T06:40:02;18.00;;;9.60;;
22030;SDS011;11179;52.106;21.024;2023-01-29T06:42:28;19.63;;;9.18;;
22030;SDS011;11179;52.106;21.024;2023-01-29T06:44:54;18.13;;;8.67;;
22030;SDS011;11179;52.106;21.024;2023-01-29T06:47:20;19.52;;;8.93;;
22030;SDS011;11179;52.106;21.024;2023-01-29T06:49:46;17.20;;;8.67;;
22030;SDS011;11179;52.106;21.024;2023-01-29T06:52:11;21.80;;;9.53;;
22030;SDS011;11179;52.106;21.024;2023-01-29T06:54:37;18.77;;;9.77;;
22030;SDS011;11179;52.106;21.024;2023-01-29T06:57:02;16.40;;;8.60;;
22030;SDS011;11179;52.106;21.024;2023-01-29T06:59:28;21.17;;;10.13;;
22030;SDS011;11179;52.106;21.024;2023-01-29T07:01:53;22.73;;;10.03;;
22030;SDS011;11179;52.106;21.024;2023-01-29T07:04:18;19.60;;;10.17;;
22030;SDS011;11179;52.106;21.024;2023-01-29T07:06:44;24.23;;;9.50;;
22030;SDS011;11179;52.106;21.024;2023-01-29T07:09:12;18.40;;;8.57;;
22030;SDS011;11179;52.106;21.024;2023-01-29T07:11:38;22.73;;;8.10;;
22030;SDS011;11179;52.106;21.024;2023-01-29T07:14:04;16.43;;;8.60;;
22030;SDS011;11179;52.106;21.024;2023-01-29T07:16:29;13.83;;;7.60;;
22030;SDS011;11179;52.106;21.024;2023-01-29T07:18:54;16.33;;;8.00;;
22030;SDS011;11179;52.106;21.024;2023-01-29T07:21:20;17.37;;;8.40;;
22030;SDS011;11179;52.106;21.024;2023-01-29T07:23:46;15.37;;;7.60;;
22030;SDS011;11179;52.106;21.024;2023-01-29T07:26:11;13.80;;;7.30;;
22030;SDS011;11179;52.106;21.024;2023-01-29T07:28:37;13.60;;;7.57;;
22030;SDS011;11179;52.106;21.024;2023-01-29T07:31:05;16.52;;;8.00;;
22030;SDS011;11179;52.106;21.024;2023-01-29T07:33:31;17.13;;;7.70;;
22030;SDS011;11179;52.106;21.024;2023-01-29T07:36:00;22.58;;;7.78;;
22030;SDS011;11179;52.106;21.024;2023-01-29T07:38:26;13.15;;;7.60;;
22030;SDS011;11179;52.106;21.024;2023-01-29T07:40:52;15.30;;;8.80;;
22030;SDS011;11179;52.106;21.024;2023-01-29T07:43:17;15.30;;;8.30;;
22030;SDS011;11179;52.106;21.024;2023-01-29T07:45:42;12.93;;;7.47;;
22030;SDS011;11179;52.106;21.024;2023-01-29T07:48:09;16.50;;;8.07;;
22030;SDS011;11179;52.106;21.024;2023-01-29T07:50:36;14.05;;;8.27;;
22030;SDS011;11179;52.106;21.024;2023-01-29T07:53:02;15.43;;;7.82;;
22030;SDS011;11179;52.106;21.024;2023-01-29T07:55:31;19.70;;;8.40;;
22030;SDS011;11179;52.106;21.024;2023-01-29T07:58:01;16.05;;;8.27;;
22030;SDS011;11179;52.106;21.024;2023-01-29T08:00:28;18.20;;;8.43;;
22030;SDS011;11179;52.106;21.024;2023-01-29T08:03:05;16.38;;;8.13;;
22030;SDS011;11179;52.106;21.024;2023-01-29T08:05:33;19.35;;;8.65;;
22030;SDS011;11179;52.106;21.024;2023-01-29T08:07:59;20.20;;;8.33;;
22030;SDS011;11179;52.106;21.024;2023-01-29T08:10:24;15.27;;;8.37;;
22030;SDS011;11179;52.106;21.024;2023-01-29T08:12:56;16.17;;;8.20;;
22030;SDS011;11179;52.106;21.024;2023-01-29T08:15:26;17.23;;;8.65;;
22030;SDS011;11179;52.106;21.024;2023-01-29T08:17:57;17.52;;;8.15;;
22030;SDS011;11179;52.106;21.024;2023-01-29T08:20:22;22.23;;;8.43;;
22030;SDS011;11179;52.106;21.024;2023-01-29T08:22:48;14.33;;;7.90;;
22030;SDS011;11179;52.106;21.024;2023-01-29T08:25:14;14.57;;;6.50;;
22030;SDS011;11179;52.106;21.024;2023-01-29T08:27:40;17.35;;;9.23;;
22030;SDS011;11179;52.106;21.024;2023-01-29T08:30:06;20.20;;;9.20;;
22030;SDS011;11179;52.106;21.024;2023-01-29T08:32:33;26.83;;;8.40;;
22030;SDS011;11179;52.106;21.024;2023-01-29T08:34:58;15.07;;;9.03;;
22030;SDS011;11179;52.106;21.024;2023-01-29T08:37:23;14.60;;;7.27;;
22030;SDS011;11179;52.106;21.024;2023-01-29T08:39:49;14.40;;;7.40;;
22030;SDS011;11179;52.106;21.024;2023-01-29T08:42:14;13.20;;;7.60;;
22030;SDS011;11179;52.106;21.024;2023-01-29T08:44:39;17.27;;;7.43;;
22030;SDS011;11179;52.106;21.024;2023-01-29T08:47:05;15.10;;;8.40;;
22030;SDS011;11179;52.106;21.024;2023-01-29T08:49:33;16.30;;;8.10;;
22030;SDS011;11179;52.106;21.024;2023-01-29T08:51:58;17.90;;;8.23;;
22030;SDS011;11179;52.106;21.024;2023-01-29T08:54:23;16.97;;;9.07;;
22030;SDS011;11179;52.106;21.024;2023-01-29T08:56:49;17.30;;;8.60;;
22030;SDS011;11179;52.106;21.024;2023-01-29T08:59:15;16.90;;;7.65;;
22030;SDS011;11179;52.106;21.024;2023-01-29T09:01:40;18.83;;;7.60;;
22030;SDS011;11179;52.106;21.024;2023-01-29T09:04:06;18.30;;;9.00;;
22030;SDS011;11179;52.106;21.024;2023-01-29T09:06:31;17.40;;;7.63;;
22030;SDS011;11179;52.106;21.024;2023-01-29T09:08:59;14.57;;;7.80;;
22030;SDS011;11179;52.106;21.024;2023-01-29T09:11:24;15.02;;;8.15;;
22030;SDS011;11179;52.106;21.024;2023-01-29T09:13:53;18.05;;;7.90;;
22030;SDS011;11179;52.106;21.024;2023-01-29T09:16:18;15.60;;;6.77;;
22030;SDS011;11179;52.106;21.024;2023-01-29T09:18:44;18.27;;;8.67;;
22030;SDS011;11179;52.106;21.024;2023-01-29T09:21:10;13.30;;;7.40;;
22030;SDS011;11179;52.106;21.024;2023-01-29T09:23:35;18.90;;;7.63;;
22030;SDS011;11179;52.106;21.024;2023-01-29T09:26:00;17.40;;;8.70;;
22030;SDS011;11179;52.106;21.024;2023-01-29T09:28:26;16.63;;;7.20;;
22030;SDS011;11179;52.106;21.024;2023-01-29T09:30:54;18.50;;;8.77;;
22030;SDS011;11179;52.106;21.024;2023-01-29T09:33:20;20.15;;;7.85;;
22030;SDS011;11179;52.106;21.024;2023-01-29T09:35:45;18.67;;;9.17;;
22030;SDS011;11179;52.106;21.024;2023-01-29T09:38:11;22.13;;;8.20;;
22030;SDS011;11179;52.106;21.024;2023-01-29T09:40:40;17.40;;;7.83;;
22030;SDS011;11179;52.106;21.024;2023-01-29T09:43:39;19.45;;;8.23;;
22030;SDS011;11179;52.106;21.024;2023-01-29T09:46:17;19.95;;;8.13;;
22030;SDS011;11179;52.106;21.024;2023-01-29T09:48:51;18.15;;;8.52;;
22030;SDS011;11179;52.106;21.024;2023-01-29T09:51:42;17.13;;;8.23;;
22030;SDS011;11179;52.106;21.024;2023-01-29T09:56:54;18.43;;;8.60;;
22030;SDS011;11179;52.106;21.024;2023-01-29T09:59:21;22.40;;;9.20;;
22030;SDS011;11179;52.106;21.024;2023-01-29T10:04:49;21.33;;;8.80;;
22030;SDS011;11179;52.106;21.024;2023-01-29T10:10:25;18.38;;;8.85;;
22030;SDS011;11179;52.106;21.024;2023-01-29T10:12:59;20.53;;;9.40;;
22030;SDS011;11179;52.106;21.024;2023-01-29T10:15:45;19.13;;;9.00;;
22030;SDS011;11179;52.106;21.024;2023-01-29T10:21:10;14.63;;;7.93;;
22030;SDS011;11179;52.106;21.024;2023-01-29T10:24:04;21.53;;;8.83;;
22030;SDS011;11179;52.106;21.024;2023-01-29T10:26:33;18.33;;;8.60;;
22030;SDS011;11179;52.106;21.024;2023-01-29T10:29:01;16.98;;;8.23;;
22030;SDS011;11179;52.106;21.024;2023-01-29T10:31:34;17.60;;;8.00;;
22030;SDS011;11179;52.106;21.024;2023-01-29T10:36:37;15.47;;;7.60;;
22030;SDS011;11179;52.106;21.024;2023-01-29T10:39:16;23.97;;;9.67;;
22030;SDS011;11179;52.106;21.024;2023-01-29T10:41:47;16.73;;;8.20;;
22030;SDS011;11179;52.106;21.024;2023-01-29T10:44:37;17.20;;;8.50;;
22030;SDS011;11179;52.106;21.024;2023-01-29T10:49:58;15.60;;;7.73;;
22030;SDS011;11179;52.106;21.024;2023-01-29T11:00:32;16.43;;;7.93;;
22030;SDS011;11179;52.106;21.024;2023-01-29T11:08:53;24.77;;;9.77;;
22030;SDS011;11179;52.106;21.024;2023-01-29T11:14:48;21.40;;;7.90;;
22030;SDS011;11179;52.106;21.024;2023-01-29T11:17:18;19.60;;;10.10;;
22030;SDS011;11179;52.106;21.024;2023-01-29T11:19:46;15.53;;;7.53;;
22030;SDS011;11179;52.106;21.024;2023-01-29T11:22:16;21.00;;;8.47;;
22030;SDS011;11179;52.106;21.024;2023-01-29T11:24:44;16.00;;;8.10;;
22030;SDS011;11179;52.106;21.024;2023-01-29T11:27:28;17.50;;;8.10;;
22030;SDS011;11179;52.106;21.024;2023-01-29T11:29:59;19.50;;;7.40;;
22030;SDS011;11179;52.106;21.024;2023-01-29T11:32:25;19.00;;;8.50;;
22030;SDS011;11179;52.106;21.024;2023-01-29T11:37:22;15.23;;;7.90;;
22030;SDS011;11179;52.106;21.024;2023-01-29T11:39:55;15.90;;;7.40;;
22030;SDS011;11179;52.106;21.024;2023-01-29T11:42:21;16.47;;;7.90;;
22030;SDS011;11179;52.106;21.024;2023-01-29T11:44:47;23.10;;;8.50;;
22030;SDS011;11179;52.106;21.024;2023-01-29T11:47:24;18.87;;;9.00;;
22030;SDS011;11179;52.106;21.024;2023-01-29T11:49:52;20.17;;;8.90;;
22030;SDS011;11179;52.106;21.024;2023-01-29T11:52:20;17.10;;;7.43;;
22030;SDS011;11179;52.106;21.024;2023-01-29T11:54:54;15.70;;;8.10;;
22030;SDS011;11179;52.106;21.024;2023-01-29T11:59:52;17.67;;;8.43;;
22030;SDS011;11179;52.106;21.024;2023-01-29T12:05:13;20.85;;;8.75;;
22030;SDS011;11179;52.106;21.024;2023-01-29T12:07:42;18.50;;;9.07;;
22030;SDS011;11179;52.106;21.024;2023-01-29T12:15:43;16.03;;;8.07;;
22030;SDS011;11179;52.106;21.024;2023-01-29T12:21:03;21.00;;;9.10;;
22030;SDS011;11179;52.106;21.024;2023-01-29T12:23:39;20.13;;;8.43;;
22030;SDS011;11179;52.106;21.024;2023-01-29T12:34:57;19.30;;;8.93;;
22030;SDS011;11179;52.106;21.024;2023-01-29T12:37:59;20.03;;;9.30;;
22030;SDS011;11179;52.106;21.024;2023-01-29T12:40:51;22.30;;;10.87;;
22030;SDS011;11179;52.106;21.024;2023-01-29T12:46:24;19.07;;;10.70;;
22030;SDS011;11179;52.106;21.024;2023-01-29T12:48:52;21.70;;;11.00;;
22030;SDS011;11179;52.106;21.024;2023-01-29T12:51:24;23.90;;;11.13;;
22030;SDS011;11179;52.106;21.024;2023-01-29T12:54:00;18.73;;;9.73;;
22030;SDS011;11179;52.106;21.024;2023-01-29T12:59:30;18.93;;;11.10;;
22030;SDS011;11179;52.106;21.024;2023-01-29T13:05:19;21.02;;;11.45;;
22030;SDS011;11179;52.106;21.024;2023-01-29T13:07:51;22.70;;;11.50;;
22030;SDS011;11179;52.106;21.024;2023-01-29T13:10:23;22.27;;;11.00;;
22030;SDS011;11179;52.106;21.024;2023-01-29T13:12:56;23.83;;;10.77;;
22030;SDS011;11179;52.106;21.024;2023-01-29T13:15:35;20.15;;;10.40;;
22030;SDS011;11179;52.106;21.024;2023-01-29T13:20:47;21.27;;;12.15;;
22030;SDS011;11179;52.106;21.024;2023-01-29T13:23:17;25.17;;;12.38;;
22030;SDS011;11179;52.106;21.024;2023-01-29T13:25:48;25.73;;;12.70;;
22030;SDS011;11179;52.106;21.024;2023-01-29T13:28:19;27.23;;;14.30;;
22030;SDS011;11179;52.106;21.024;2023-01-29T13:30:46;25.65;;;11.45;;
22030;SDS011;11179;52.106;21.024;2023-01-29T13:33:50;26.60;;;13.87;;
22030;SDS011;11179;52.106;21.024;2023-01-29T13:36:19;26.23;;;13.05;;
22030;SDS011;11179;52.106;21.024;2023-01-29T13:39:35;31.13;;;13.45;;
22030;SDS011;11179;52.106;21.024;2023-01-29T13:42:13;22.67;;;11.33;;
22030;SDS011;11179;52.106;21.024;2023-01-29T13:44:59;28.88;;;13.07;;
22030;SDS011;11179;52.106;21.024;2023-01-29T13:47:28;23.53;;;12.00;;
22030;SDS011;11179;52.106;21.024;2023-01-29T13:50:00;23.90;;;12.57;;
22030;SDS011;11179;52.106;21.024;2023-01-29T13:55:04;19.93;;;11.13;;
22030;SDS011;11179;52.106;21.024;2023-01-29T14:00:01;25.30;;;13.70;;
22030;SDS011;11179;52.106;21.024;2023-01-29T14:02:28;27.00;;;13.40;;
22030;SDS011;11179;52.106;21.024;2023-01-29T14:07:59;27.33;;;14.75;;
22030;SDS011;11179;52.106;21.024;2023-01-29T14:10:34;30.70;;;15.15;;
22030;SDS011;11179;52.106;21.024;2023-01-29T14:15:42;29.75;;;14.98;;
22030;SDS011;11179;52.106;21.024;2023-01-29T14:18:21;30.27;;;15.43;;
22030;SDS011;11179;52.106;21.024;2023-01-29T14:23:26;29.75;;;14.80;;
22030;SDS011;11179;52.106;21.024;2023-01-29T14:26:05;25.10;;;13.55;;
22030;SDS011;11179;52.106;21.024;2023-01-29T14:28:51;26.65;;;13.82;;
22030;SDS011;11179;52.106;21.024;2023-01-29T14:34:01;29.42;;;14.73;;
22030;SDS011;11179;52.106;21.024;2023-01-29T14:36:28;27.58;;;14.25;;
22030;SDS011;11179;52.106;21.024;2023-01-29T14:39:03;34.20;;;14.02;;
22030;SDS011;11179;52.106;21.024;2023-01-29T14:41:29;26.33;;;13.47;;
22030;SDS011;11179;52.106;21.024;2023-01-29T14:47:00;29.48;;;13.38;;
22030;SDS011;11179;52.106;21.024;2023-01-29T14:52:22;30.33;;;15.50;;
22030;SDS011;11179;52.106;21.024;2023-01-29T14:54:55;32.17;;;14.38;;
22030;SDS011;11179;52.106;21.024;2023-01-29T14:57:23;25.55;;;15.05;;
22030;SDS011;11179;52.106;21.024;2023-01-29T14:59:56;27.85;;;14.45;;
22030;SDS011;11179;52.106;21.024;2023-01-29T15:02:25;26.58;;;14.25;;
22030;SDS011;11179;52.106;21.024;2023-01-29T15:05:01;29.42;;;14.88;;
22030;SDS011;11179;52.106;21.024;2023-01-29T15:10:10;25.20;;;13.68;;
22030;SDS011;11179;52.106;21.024;2023-01-29T15:12:45;27.05;;;15.00;;
22030;SDS011;11179;52.106;21.024;2023-01-29T15:18:02;31.73;;;16.50;;
22030;SDS011;11179;52.106;21.024;2023-01-29T15:20:36;31.27;;;15.48;;
22030;SDS011;11179;52.106;21.024;2023-01-29T15:23:20;30.95;;;16.15;;
22030;SDS011;11179;52.106;21.024;2023-01-29T15:25:49;32.80;;;16.45;;
22030;SDS011;11179;52.106;21.024;2023-01-29T15:28:15;31.63;;;16.70;;
22030;SDS011;11179;52.106;21.024;2023-01-29T15:30:41;33.30;;;16.47;;
22030;SDS011;11179;52.106;21.024;2023-01-29T15:33:07;28.00;;;14.18;;
22030;SDS011;11179;52.106;21.024;2023-01-29T15:35:36;27.85;;;15.50;;
22030;SDS011;11179;52.106;21.024;2023-01-29T15:38:16;27.75;;;14.10;;
22030;SDS011;11179;52.106;21.024;2023-01-29T15:40:56;29.88;;;15.48;;
22030;SDS011;11179;52.106;21.024;2023-01-29T15:43:30;26.80;;;14.75;;
22030;SDS011;11179;52.106;21.024;2023-01-29T15:46:04;26.10;;;13.50;;
22030;SDS011;11179;52.106;21.024;2023-01-29T15:48:38;25.52;;;12.63;;
22030;SDS011;11179;52.106;21.024;2023-01-29T15:51:06;23.00;;;12.98;;
22030;SDS011;11179;52.106;21.024;2023-01-29T15:53:35;31.27;;;15.10;;
22030;SDS011;11179;52.106;21.024;2023-01-29T15:56:07;33.55;;;16.52;;
22030;SDS011;11179;52.106;21.024;2023-01-29T15:58:34;34.00;;;17.73;;
22030;SDS011;11179;52.106;21.024;2023-01-29T16:00:59;29.70;;;15.70;;
22030;SDS011;11179;52.106;21.024;2023-01-29T16:03:26;26.63;;;14.98;;
22030;SDS011;11179;52.106;21.024;2023-01-29T16:05:55;30.30;;;15.65;;
22030;SDS011;11179;52.106;21.024;2023-01-29T16:08:21;32.93;;;18.07;;
22030;SDS011;11179;52.106;21.024;2023-01-29T16:10:51;31.67;;;16.27;;
22030;SDS011;11179;52.106;21.024;2023-01-29T16:13:20;31.73;;;16.20;;
22030;SDS011;11179;52.106;21.024;2023-01-29T16:15:57;33.35;;;17.33;;
22030;SDS011;11179;52.106;21.024;2023-01-29T16:18:31;31.23;;;15.82;;
22030;SDS011;11179;52.106;21.024;2023-01-29T16:21:13;36.67;;;15.32;;
22030;SDS011;11179;52.106;21.024;2023-01-29T16:23:47;31.77;;;14.93;;
22030;SDS011;11179;52.106;21.024;2023-01-29T16:26:16;27.88;;;14.32;;
22030;SDS011;11179;52.106;21.024;2023-01-29T16:28:44;31.92;;;17.58;;
22030;SDS011;11179;52.106;21.024;2023-01-29T16:31:10;29.83;;;16.50;;
22030;SDS011;11179;52.106;21.024;2023-01-29T16:33:38;32.33;;;17.23;;
22030;SDS011;11179;52.106;21.024;2023-01-29T16:36:16;33.15;;;17.30;;
22030;SDS011;11179;52.106;21.024;2023-01-29T16:38:45;30.27;;;16.20;;
22030;SDS011;11179;52.106;21.024;2023-01-29T16:43:53;32.53;;;16.45;;
22030;SDS011;11179;52.106;21.024;2023-01-29T16:46:24;31.30;;;17.15;;
22030;SDS011;11179;52.106;21.024;2023-01-29T16:49:00;28.77;;;14.73;;
22030;SDS011;11179;52.106;21.024;2023-01-29T16:51:31;32.45;;;17.50;;
22030;SDS011;11179;52.106;21.024;2023-01-29T16:54:10;34.38;;;16.10;;
22030;SDS011;11179;52.106;21.024;2023-01-29T16:56:42;34.63;;;17.73;;
22030;SDS011;11179;52.106;21.024;2023-01-29T16:59:16;36.78;;;18.67;;
22030;SDS011;11179;52.106;21.024;2023-01-29T17:01:46;33.38;;;17.20;;
22030;SDS011;11179;52.106;21.024;2023-01-29T17:04:13;32.70;;;17.17;;